Time;durP1;ratioP1;P1;durP2;ratioP2;P2;SDS_P1;SDS_P2;PMS_P1;PMS_P2;Temp;Humidity;BMP_temperature;BMP_pressure;BME280_temperature;BME280_humidity;BME280_pressure;Samples;Min_cycle;Max_cycle;Signal;HPM_P1;HPM_P2
2022/11/27 00:01:11;;;;;;;14.73;9.40;;;;;;;6.92;100.00;101728.53;4998852;28;20062;-71
2022/11/27 00:03:38;;;;;;;18.83;10.10;;;;;;;6.87;100.00;101722.44;4995520;28;20046;-72
2022/11/27 00:06:06;;;;;;;14.73;9.85;;;;;;;6.91;100.00;101719.75;5002393;28;20054;-71
2022/11/27 00:08:33;;;;;;;16.88;9.93;;;;;;;6.95;100.00;101718.81;4987389;28;20137;-70
2022/11/27 00:11:07;;;;;;;22.95;9.73;;;;;;;6.96;100.00;101712.66;4989184;28;20047;-71
2022/11/27 00:13:34;;;;;;;17.25;10.57;;;;;;;6.98;100.00;101715.28;4992586;28;20050;-72
2022/11/27 00:16:01;;;;;;;18.60;10.20;;;;;;;6.86;100.00;101678.56;4994032;28;20607;-72
2022/11/27 00:18:28;;;;;;;16.98;9.73;;;;;;;6.81;100.00;101664.56;4988285;28;20237;-73
2022/11/27 00:20:54;;;;;;;16.83;9.90;;;;;;;6.89;100.00;101678.53;4996924;28;20137;-73
2022/11/27 00:23:21;;;;;;;17.50;10.23;;;;;;;6.91;100.00;101679.38;5002549;28;20053;-70
2022/11/27 00:25:51;;;;;;;21.40;10.65;;;;;;;7.04;100.00;101696.78;4997228;28;20046;-72
2022/11/27 00:28:19;;;;;;;19.70;10.82;;;;;;;7.02;100.00;101693.28;4976332;28;20130;-72
2022/11/27 00:30:46;;;;;;;17.70;10.60;;;;;;;7.02;100.00;101690.66;4999669;28;20670;-73
2022/11/27 00:33:12;;;;;;;19.55;11.05;;;;;;;6.98;100.00;101689.81;4995671;28;20050;-71
2022/11/27 00:35:39;;;;;;;18.38;10.40;;;;;;;7.02;100.00;101688.03;5004724;28;20129;-72
2022/11/27 00:38:06;;;;;;;17.48;10.25;;;;;;;7.02;100.00;101677.50;4981723;28;20078;-72
2022/11/27 00:40:33;;;;;;;18.25;10.00;;;;;;;7.01;100.00;101673.09;5002832;28;20050;-72
2022/11/27 00:43:00;;;;;;;22.95;11.13;;;;;;;7.00;100.00;101679.25;4993185;28;20045;-71
2022/11/27 00:45:28;;;;;;;14.48;10.13;;;;;;;7.02;100.00;101681.00;4999632;28;20065;-72
2022/11/27 00:47:55;;;;;;;18.52;9.63;;;;;;;6.97;100.00;101669.63;4985328;28;20174;-73
2022/11/27 00:50:21;;;;;;;18.77;10.73;;;;;;;6.94;100.00;101658.25;4996712;28;20085;-72
2022/11/27 00:52:48;;;;;;;17.77;10.00;;;;;;;6.99;100.00;101666.97;5003094;28;20072;-70
2022/11/27 00:55:14;;;;;;;17.17;9.18;;;;;;;7.01;100.00;101657.31;4997229;28;20125;-74
2022/11/27 00:57:41;;;;;;;18.23;10.27;;;;;;;7.01;100.00;101665.22;4982487;28;20047;-69
2022/11/27 01:00:08;;;;;;;17.27;9.98;;;;;;;6.97;100.00;101669.63;4996177;28;20137;-71
2022/11/27 01:02:35;;;;;;;18.85;10.02;;;;;;;6.93;100.00;101667.03;4998665;28;20125;-73
2022/11/27 01:05:01;;;;;;;16.85;9.40;;;;;;;6.96;100.00;101662.63;5001854;28;20061;-71
2022/11/27 01:07:28;;;;;;;17.00;10.50;;;;;;;6.94;100.00;101656.50;4993519;28;20039;-71
2022/11/27 01:09:54;;;;;;;18.80;9.20;;;;;;;6.92;100.00;101654.81;4985104;28;20046;-69
2022/11/27 01:12:21;;;;;;;15.60;8.88;;;;;;;6.90;100.00;101652.19;4993407;28;20475;-71
2022/11/27 01:14:47;;;;;;;17.90;9.68;;;;;;;6.81;100.00;101631.22;5005097;28;20085;-72
2022/11/27 01:17:14;;;;;;;18.42;9.35;;;;;;;6.92;100.00;101641.63;4984988;28;20126;-72
2022/11/27 01:19:41;;;;;;;17.42;9.38;;;;;;;6.84;100.00;101632.94;4990753;28;20050;-70
2022/11/27 01:22:07;;;;;;;17.50;9.88;;;;;;;6.89;100.00;101634.63;4991211;28;20049;-71
2022/11/27 01:24:34;;;;;;;18.58;9.40;;;;;;;6.83;100.00;101620.66;4997610;28;20069;-71
2022/11/27 01:27:00;;;;;;;20.25;9.48;;;;;;;6.87;100.00;101625.00;4996272;28;20293;-70
2022/11/27 01:29:27;;;;;;;18.75;9.60;;;;;;;6.94;100.00;101639.81;4981086;28;20050;-72
2022/11/27 01:31:53;;;;;;;17.17;8.85;;;;;;;6.90;100.00;101625.84;5004006;28;20518;-71
2022/11/27 01:34:20;;;;;;;16.85;8.60;;;;;;;6.82;100.00;101614.53;4993512;28;20580;-71
2022/11/27 01:36:47;;;;;;;13.68;8.40;;;;;;;6.92;100.00;101624.06;4995870;28;20064;-72
2022/11/27 01:39:19;;;;;;;20.00;9.02;;;;;;;6.92;100.00;101626.69;4987515;28;20060;-72
2022/11/27 01:41:47;;;;;;;16.95;8.75;;;;;;;6.87;100.00;101632.91;4993876;28;20070;-71
2022/11/27 01:44:23;;;;;;;21.38;9.07;;;;;;;6.81;100.00;101630.34;4993996;28;20631;-71
2022/11/27 01:46:54;;;;;;;17.90;8.63;;;;;;;6.76;100.00;101633.03;4999100;28;20518;-71
2022/11/27 01:49:34;;;;;;;18.35;8.73;;;;;;;6.73;100.00;101621.66;4979667;28;20056;-71
2022/11/27 01:52:06;;;;;;;15.68;8.45;;;;;;;6.72;100.00;101620.78;5000028;28;20097;-71
2022/11/27 01:54:44;;;;;;;14.45;8.55;;;;;;;6.65;100.00;101621.75;4995641;28;20562;-71
2022/11/27 01:57:31;;;;;;;17.92;9.02;;;;;;;6.64;100.00;101628.75;4993794;28;20145;-71
2022/11/27 02:00:00;;;;;;;15.88;8.35;;;;;;;6.66;100.00;101629.63;4984963;28;20046;-71
2022/11/27 02:02:27;;;;;;;13.80;8.10;;;;;;;6.64;100.00;101633.16;4995583;28;20050;-72
2022/11/27 02:04:54;;;;;;;15.02;7.78;;;;;;;6.56;100.00;101629.75;5000010;28;20076;-72
2022/11/27 02:07:21;;;;;;;19.23;8.70;;;;;;;6.46;100.00;101633.34;4994300;28;20050;-71
2022/11/27 02:09:48;;;;;;;17.55;8.18;;;;;;;6.31;100.00;101608.06;4983377;28;20061;-71
2022/11/27 02:12:42;;;;;;;16.85;8.75;;;;;;;6.46;100.00;101625.44;4992759;28;20046;-71
2022/11/27 02:15:40;;;;;;;17.52;8.93;;;;;;;6.48;100.00;101627.19;5000399;28;20137;-72
2022/11/27 02:18:28;;;;;;;17.45;8.38;;;;;;;6.40;100.00;101613.25;4986207;28;20458;-71
2022/11/27 02:21:09;;;;;;;13.70;8.70;;;;;;;6.34;100.00;101603.66;4991271;28;20129;-70
2022/11/27 02:23:48;;;;;;;14.95;8.25;;;;;;;6.36;100.00;101608.91;4988945;28;20046;-72
2022/11/27 02:26:17;;;;;;;18.65;8.57;;;;;;;6.36;100.00;101616.81;4990942;28;20189;-70
2022/11/27 02:29:09;;;;;;;19.08;8.98;;;;;;;6.28;100.00;101605.50;4979189;28;20134;-71
2022/11/27 02:32:19;;;;;;;16.02;8.45;;;;;;;6.18;100.00;101611.72;4990524;28;20054;-71
2022/11/27 02:34:52;;;;;;;20.70;9.43;;;;;;;6.11;100.00;101605.66;4994463;28;20360;-71
2022/11/27 02:37:30;;;;;;;19.33;9.75;;;;;;;6.04;100.00;101608.34;4993958;28;20058;-71
2022/11/27 02:40:35;;;;;;;17.02;8.77;;;;;;;5.97;100.00;101602.28;4979980;28;20047;-71
2022/11/27 02:43:14;;;;;;;19.45;9.75;;;;;;;5.87;100.00;101601.44;4985004;28;20137;-71
2022/11/27 02:45:44;;;;;;;17.63;9.65;;;;;;;5.83;100.00;101601.47;5001124;28;20054;-72
2022/11/27 02:48:14;;;;;;;19.88;9.77;;;;;;;5.73;100.00;101591.94;4989589;28;20047;-71
2022/11/27 02:50:43;;;;;;;19.27;10.10;;;;;;;5.74;100.00;101597.19;4983677;28;20050;-71
2022/11/27 02:53:32;;;;;;;20.10;10.05;;;;;;;5.76;100.00;101594.53;5000710;28;20129;-71
2022/11/27 02:56:01;;;;;;;17.95;8.80;;;;;;;5.75;100.00;101587.53;4994240;28;20370;-71
2022/11/27 02:58:28;;;;;;;18.98;10.32;;;;;;;5.83;100.00;101594.47;4976451;28;20081;-71
2022/11/27 03:00:56;;;;;;;18.73;9.75;;;;;;;5.85;100.00;101591.81;4995497;28;20062;-71
2022/11/27 03:03:28;;;;;;;24.58;10.60;;;;;;;5.87;100.00;101579.53;4990852;28;20050;-71
2022/11/27 03:06:02;;;;;;;21.48;10.82;;;;;;;5.85;100.00;101576.03;5001550;28;20494;-71
2022/11/27 03:08:37;;;;;;;20.80;10.13;;;;;;;5.78;100.00;101574.38;4980133;28;20504;-71
2022/11/27 03:11:07;;;;;;;24.45;11.60;;;;;;;5.73;100.00;101573.53;4988842;28;20061;-71
2022/11/27 03:13:38;;;;;;;21.42;10.40;;;;;;;5.61;100.00;101561.38;5002151;28;20056;-71
2022/11/27 03:16:21;;;;;;;21.25;10.40;;;;;;;5.68;100.00;101586.69;4995519;28;20050;-71
2022/11/27 03:19:08;;;;;;;19.27;10.80;;;;;;;5.63;100.00;101580.63;4981132;28;20128;-70
2022/11/27 03:21:39;;;;;;;19.98;11.30;;;;;;;5.67;100.00;101589.38;4995951;28;20068;-70
2022/11/27 03:24:07;;;;;;;19.40;10.63;;;;;;;5.64;100.00;101592.88;4993765;28;20133;-70
2022/11/27 03:26:34;;;;;;;19.58;10.82;;;;;;;5.59;100.00;101574.53;4992177;28;20130;-71
2022/11/27 03:29:03;;;;;;;21.83;11.00;;;;;;;5.52;100.00;101566.69;4984371;28;20058;-69
2022/11/27 03:31:30;;;;;;;16.52;11.15;;;;;;;5.47;100.00;101563.25;4988329;28;20077;-71
2022/11/27 03:33:57;;;;;;;23.85;11.40;;;;;;;5.39;100.00;101572.91;4992811;28;20060;-71
2022/11/27 03:36:24;;;;;;;23.77;11.73;;;;;;;5.31;100.00;101572.97;4997038;28;20061;-71
2022/11/27 03:38:53;;;;;;;21.95;11.35;;;;;;;5.24;100.00;101574.75;4982573;28;20217;-71
2022/11/27 03:41:52;;;;;;;23.45;11.93;;;;;;;5.02;100.00;101546.91;4991345;28;20078;-71
2022/11/27 03:44:25;;;;;;;24.23;11.70;;;;;;;5.19;100.00;101573.06;5001111;28;20074;-71
2022/11/27 03:47:16;;;;;;;26.38;12.43;;;;;;;5.03;100.00;101543.41;5000809;28;20336;-70
2022/11/27 03:50:10;;;;;;;22.20;11.85;;;;;;;5.11;100.00;101553.84;4989808;28;20046;-71
2022/11/27 03:52:58;;;;;;;25.35;12.82;;;;;;;5.10;100.00;101558.22;4997295;28;20057;-70
2022/11/27 03:55:32;;;;;;;27.05;12.70;;;;;;;5.09;100.00;101548.59;4994634;28;20046;-73
2022/11/27 03:58:13;;;;;;;22.77;12.70;;;;;;;5.05;100.00;101544.25;4995248;28;20049;-71
2022/11/27 04:00:41;;;;;;;;;;;;;;;5.05;100.00;101540.75;4995002;28;20061;-72
2022/11/27 04:03:10;;;;;;;25.00;13.25;;;;;;;5.00;100.00;101540.78;4997783;28;19922;-71
2022/11/27 04:05:37;;;;;;;26.52;13.23;;;;;;;4.96;100.00;101543.44;4999051;28;20073;-71
2022/11/27 04:08:04;;;;;;;24.10;13.55;;;;;;;4.89;100.00;101546.09;4997028;28;20140;-70
2022/11/27 04:10:30;;;;;;;26.77;13.30;;;;;;;4.75;100.00;101515.53;4984790;28;20545;-71
2022/11/27 04:12:57;;;;;;;20.90;13.00;;;;;;;4.83;100.00;101543.50;4996710;28;20475;-70
2022/11/27 04:15:23;;;;;;;23.55;13.82;;;;;;;4.78;100.00;101545.28;4998624;28;20065;-71
2022/11/27 04:17:50;;;;;;;24.88;14.40;;;;;;;4.78;100.00;101539.16;4998302;28;20559;-74
2022/11/27 04:20:16;;;;;;;24.60;13.90;;;;;;;4.58;100.00;101511.25;4986719;28;20379;-71
2022/11/27 04:22:43;;;;;;;26.42;13.45;;;;;;;4.71;100.00;101534.84;5004989;28;20050;-70
2022/11/27 04:25:10;;;;;;;29.90;14.98;;;;;;;4.68;100.00;101527.84;4996184;28;20642;-69
2022/11/27 04:27:36;;;;;;;27.95;14.23;;;;;;;4.72;100.00;101536.59;5004196;28;20041;-71
2022/11/27 04:30:04;;;;;;;29.23;14.68;;;;;;;4.72;100.00;101534.78;4980499;28;20435;-71
2022/11/27 04:32:30;;;;;;;27.35;13.85;;;;;;;4.71;100.00;101532.22;4999221;28;20176;-72
2022/11/27 04:34:57;;;;;;;31.45;14.32;;;;;;;4.63;100.00;101520.88;4998581;28;20061;-71
2022/11/27 04:37:24;;;;;;;25.67;13.88;;;;;;;4.64;100.00;101517.38;4998476;28;20137;-71
2022/11/27 04:39:50;;;;;;;31.98;15.45;;;;;;;4.61;100.00;101512.13;4982646;28;20398;-71
2022/11/27 04:42:17;;;;;;;28.63;14.32;;;;;;;4.53;100.00;101507.81;4999201;28;20081;-72
2022/11/27 04:44:44;;;;;;;24.08;13.90;;;;;;;4.38;100.00;101491.25;4992788;28;20133;-71
2022/11/27 04:47:10;;;;;;;31.45;16.02;;;;;;;4.49;100.00;101510.44;5003327;28;20046;-72
2022/11/27 04:49:37;;;;;;;22.10;14.27;;;;;;;4.45;100.00;101506.94;4980898;28;20137;-70
2022/11/27 04:52:04;;;;;;;29.45;14.85;;;;;;;4.40;100.00;101506.13;4997787;28;20566;-71
2022/11/27 04:54:31;;;;;;;26.00;14.52;;;;;;;4.37;100.00;101510.50;5000429;28;20145;-71
2022/11/27 04:56:57;;;;;;;29.85;15.05;;;;;;;4.33;100.00;101509.63;4998815;28;20486;-72
2022/11/27 04:59:24;;;;;;;30.77;15.40;;;;;;;4.33;100.00;101508.75;4980210;28;20405;-70
2022/11/27 05:01:51;;;;;;;27.95;15.00;;;;;;;4.29;100.00;101501.78;5000027;28;20077;-72
2022/11/27 05:04:17;;;;;;;26.98;14.38;;;;;;;4.27;100.00;101498.28;4993980;28;20506;-71
2022/11/27 05:06:44;;;;;;;28.02;15.13;;;;;;;4.25;100.00;101515.78;5005197;28;20058;-71
2022/11/27 05:09:11;;;;;;;26.92;14.32;;;;;;;4.22;100.00;101516.66;4982961;28;20088;-69
2022/11/27 05:11:37;;;;;;;28.20;15.65;;;;;;;4.20;100.00;101511.41;4988767;28;20133;-71
2022/11/27 05:14:21;;;;;;;24.48;15.10;;;;;;;4.22;100.00;101511.41;4997592;28;20124;-72
2022/11/27 05:16:50;;;;;;;26.85;14.23;;;;;;;4.15;100.00;101514.94;4998329;28;20098;-70
2022/11/27 05:19:19;;;;;;;27.95;14.70;;;;;;;4.07;100.00;101506.22;4987388;28;20045;-71
2022/11/27 05:21:47;;;;;;;28.05;14.48;;;;;;;4.03;100.00;101501.84;4987372;28;20062;-70
2022/11/27 05:24:15;;;;;;;27.60;14.40;;;;;;;3.99;100.00;101501.00;4994816;28;20074;-71
2022/11/27 05:26:42;;;;;;;26.23;15.48;;;;;;;3.96;100.00;101493.13;4998149;28;20128;-70
2022/11/27 05:29:10;;;;;;;29.00;14.85;;;;;;;3.95;100.00;101495.75;4988437;28;20158;-70
2022/11/27 05:31:37;;;;;;;25.77;14.40;;;;;;;3.83;100.00;101486.19;4996479;28;20045;-72
2022/11/27 05:34:04;;;;;;;27.77;15.05;;;;;;;3.86;100.00;101491.41;4990535;28;20046;-71
2022/11/27 05:36:31;;;;;;;28.75;14.85;;;;;;;3.87;100.00;101494.03;4995989;28;20054;-70
2022/11/27 05:38:59;;;;;;;28.90;15.52;;;;;;;3.87;100.00;101491.41;4992462;28;20073;-71
2022/11/27 05:41:26;;;;;;;24.38;14.07;;;;;;;3.82;100.00;101485.31;4987853;28;20081;-71
2022/11/27 05:43:52;;;;;;;27.20;14.80;;;;;;;3.81;100.00;101501.03;4998833;28;20143;-71
2022/11/27 05:46:21;;;;;;;28.70;14.60;;;;;;;3.79;100.00;101498.41;5003973;28;20065;-72
2022/11/27 05:48:48;;;;;;;25.63;14.50;;;;;;;3.80;100.00;101499.28;4995360;28;20382;-73
2022/11/27 05:51:16;;;;;;;28.60;14.68;;;;;;;3.82;100.00;101490.53;4994826;28;20042;-71
2022/11/27 05:53:42;;;;;;;23.13;14.35;;;;;;;3.88;100.00;101505.38;5003999;28;20049;-72
2022/11/27 05:56:12;;;;;;;27.90;14.00;;;;;;;3.86;100.00;101500.16;4990748;28;20047;-71
2022/11/27 05:58:40;;;;;;;28.58;14.80;;;;;;;3.67;100.00;101468.75;4997564;28;20088;-71
2022/11/27 06:01:07;;;;;;;26.45;14.63;;;;;;;3.81;100.00;101490.53;4986688;28;20053;-72
2022/11/27 06:03:34;;;;;;;25.85;15.10;;;;;;;3.83;100.00;101488.78;4994244;28;20113;-71
2022/11/27 06:06:06;;;;;;;25.55;14.45;;;;;;;3.82;100.00;101480.06;5000836;28;20058;-72
2022/11/27 06:08:34;;;;;;;30.73;14.88;;;;;;;3.87;100.00;101472.19;4994001;28;20571;-70
2022/11/27 06:11:23;;;;;;;25.88;14.38;;;;;;;3.71;100.00;101439.06;4976447;28;20069;-71
2022/11/27 06:13:49;;;;;;;26.67;14.65;;;;;;;3.94;100.00;101468.66;4995557;28;20522;-71
2022/11/27 06:16:22;;;;;;;23.42;13.50;;;;;;;3.93;100.00;101460.84;4997106;28;20044;-72
2022/11/27 06:18:53;;;;;;;27.52;14.60;;;;;;;3.93;100.00;101471.31;4985593;28;20070;-71
2022/11/27 06:21:21;;;;;;;25.58;13.75;;;;;;;3.86;100.00;101473.94;4983614;28;20149;-70
2022/11/27 06:23:51;;;;;;;24.65;14.05;;;;;;;3.71;100.00;101455.66;4996269;28;20116;-70
2022/11/27 06:26:23;;;;;;;25.33;14.00;;;;;;;3.86;100.00;101468.72;4994675;28;20455;-70
2022/11/27 06:28:50;;;;;;;27.90;14.15;;;;;;;3.69;100.00;101438.19;4998452;28;20539;-70
2022/11/27 06:31:19;;;;;;;22.70;13.07;;;;;;;3.66;100.00;101423.34;4985322;28;20081;-70
2022/11/27 06:33:48;;;;;;;26.77;14.30;;;;;;;3.73;100.00;101429.44;4993226;28;20063;-72
2022/11/27 06:36:15;;;;;;;24.65;14.05;;;;;;;3.76;100.00;101453.91;5000083;28;20056;-71
2022/11/27 06:38:42;;;;;;;24.58;13.88;;;;;;;3.68;100.00;101460.00;4999057;28;20069;-71
2022/11/27 06:41:12;;;;;;;24.95;12.85;;;;;;;3.65;100.00;101460.88;4979654;28;20582;-72
2022/11/27 06:43:38;;;;;;;25.42;13.60;;;;;;;3.61;100.00;101453.06;4996867;28;20473;-71
2022/11/27 06:46:08;;;;;;;25.65;14.05;;;;;;;3.63;100.00;101451.28;4999924;28;20181;-71
2022/11/27 06:48:35;;;;;;;27.27;13.98;;;;;;;3.59;100.00;101445.19;4993104;28;20046;-70
2022/11/27 06:51:06;;;;;;;23.45;14.68;;;;;;;3.64;100.00;101448.66;4987320;28;20052;-70
2022/11/27 06:53:35;;;;;;;23.60;13.68;;;;;;;3.71;100.00;101447.78;5002453;28;20133;-72
2022/11/27 06:56:07;;;;;;;23.88;13.55;;;;;;;3.73;100.00;101451.28;4988974;28;20057;-72
2022/11/27 06:58:35;;;;;;;24.38;13.75;;;;;;;3.79;100.00;101443.38;4998531;28;20057;-71
2022/11/27 07:01:06;;;;;;;29.83;14.50;;;;;;;3.68;100.00;101431.19;4974869;28;20046;-71
2022/11/27 07:03:34;;;;;;;26.38;14.63;;;;;;;3.67;100.00;101438.19;4991595;28;20145;-71
2022/11/27 07:06:02;;;;;;;26.88;13.68;;;;;;;3.52;100.00;101422.50;4999936;28;20125;-72
2022/11/27 07:08:30;;;;;;;27.02;14.68;;;;;;;3.55;100.00;101437.34;4996453;28;20054;-72
2022/11/27 07:11:06;;;;;;;26.75;14.40;;;;;;;3.55;100.00;101437.34;4975550;28;20065;-72
2022/11/27 07:13:32;;;;;;;23.83;13.23;;;;;;;3.52;100.00;101439.09;5000086;28;20056;-71
2022/11/27 07:16:00;;;;;;;25.83;14.20;;;;;;;3.56;100.00;101433.84;4996856;28;20046;-72
2022/11/27 07:18:28;;;;;;;26.48;13.60;;;;;;;3.53;100.00;101434.72;4992132;28;20490;-71
2022/11/27 07:20:55;;;;;;;22.67;13.82;;;;;;;3.49;100.00;101427.72;4979232;28;20053;-70
2022/11/27 07:23:22;;;;;;;24.75;14.13;;;;;;;3.43;100.00;101409.44;4998835;28;20457;-72
2022/11/27 07:25:49;;;;;;;25.17;13.77;;;;;;;3.50;100.00;101417.25;4996836;28;20521;-71
2022/11/27 07:28:15;;;;;;;26.70;13.57;;;;;;;3.39;100.00;101397.22;4992621;28;20076;-69
2022/11/27 07:30:45;;;;;;;23.38;13.02;;;;;;;3.44;100.00;101398.97;4983454;28;20547;-70
2022/11/27 07:33:11;;;;;;;22.35;13.38;;;;;;;3.48;100.00;101412.91;4995627;28;20157;-71
2022/11/27 07:35:38;;;;;;;22.63;13.23;;;;;;;3.38;100.00;101408.56;5006421;28;20139;-73
2022/11/27 07:38:05;;;;;;;21.63;12.77;;;;;;;3.52;100.00;101446.06;5000843;28;20053;-71
2022/11/27 07:40:31;;;;;;;23.73;13.55;;;;;;;3.48;100.00;101442.56;4993038;28;20163;-70
2022/11/27 07:42:58;;;;;;;22.83;12.95;;;;;;;3.55;100.00;101450.44;4999272;28;20132;-71
2022/11/27 07:45:25;;;;;;;21.73;13.05;;;;;;;3.57;100.00;101446.94;5001297;28;20057;-71
2022/11/27 07:47:51;;;;;;;21.23;12.88;;;;;;;3.58;100.00;101447.81;4998847;28;20046;-70
2022/11/27 07:50:18;;;;;;;31.63;16.10;;;;;;;3.62;100.00;101442.53;4990986;28;20138;-70
2022/11/27 07:52:45;;;;;;;22.52;13.23;;;;;;;3.63;100.00;101441.66;4999460;28;20057;-71
2022/11/27 07:55:11;;;;;;;23.17;13.98;;;;;;;3.77;100.00;101446.91;5002812;28;20074;-72
2022/11/27 07:57:38;;;;;;;22.15;12.82;;;;;;;3.86;100.00;101439.88;4997785;28;20043;-73
2022/11/27 08:00:05;;;;;;;22.40;13.23;;;;;;;3.85;100.00;101435.53;4995364;28;20050;-70
2022/11/27 08:02:32;;;;;;;23.35;13.00;;;;;;;3.82;100.00;101429.41;4993056;28;20146;-70
2022/11/27 08:04:58;;;;;;;20.20;12.18;;;;;;;3.86;100.00;101434.66;5003401;28;20512;-70
2022/11/27 08:07:29;;;;;;;21.13;13.05;;;;;;;3.91;100.00;101412.81;4997851;28;20067;-70
2022/11/27 08:09:59;;;;;;;24.88;14.07;;;;;;;3.85;100.00;101382.25;4993861;28;20064;-71
2022/11/27 08:12:26;;;;;;;23.67;13.40;;;;;;;3.96;100.00;101383.06;4996259;28;20054;-72
2022/11/27 08:14:52;;;;;;;20.88;12.23;;;;;;;4.21;100.00;101404.81;5007105;28;20140;-70
2022/11/27 08:17:19;;;;;;;24.17;12.55;;;;;;;4.23;100.00;101382.09;4999595;28;20450;-72
2022/11/27 08:19:46;;;;;;;21.95;12.43;;;;;;;4.14;100.00;101366.38;4994168;28;20046;-70
2022/11/27 08:22:13;;;;;;;20.73;12.13;;;;;;;4.36;100.00;101398.63;4994318;28;20042;-71
2022/11/27 08:24:41;;;;;;;21.35;11.45;;;;;;;4.38;100.00;101402.97;5000059;28;20128;-71
2022/11/27 08:27:08;;;;;;;18.75;11.95;;;;;;;4.37;100.00;101405.59;4996555;28;20042;-70
2022/11/27 08:29:36;;;;;;;19.52;12.05;;;;;;;4.29;100.00;101391.66;5001064;28;20058;-71
2022/11/27 08:32:03;;;;;;;20.08;12.18;;;;;;;4.31;100.00;101401.25;4978852;28;20410;-70
2022/11/27 08:34:30;;;;;;;21.90;12.75;;;;;;;4.30;100.00;101394.25;4999155;28;20501;-72
2022/11/27 08:36:57;;;;;;;21.35;12.45;;;;;;;4.30;100.00;101388.16;4997198;28;20066;-71
2022/11/27 08:39:25;;;;;;;21.33;12.68;;;;;;;4.35;100.00;101396.88;4998840;28;20071;-71
2022/11/27 08:41:52;;;;;;;21.63;12.40;;;;;;;4.40;100.00;101409.09;4979500;28;20146;-70
2022/11/27 08:44:19;;;;;;;21.38;12.60;;;;;;;4.37;100.00;101414.34;4989426;28;20062;-72
2022/11/27 08:46:46;;;;;;;20.73;12.13;;;;;;;4.31;100.00;101406.50;5001966;28;20145;-71
2022/11/27 08:49:12;;;;;;;21.10;12.73;;;;;;;4.27;100.00;101403.88;4990226;28;20074;-71
2022/11/27 08:51:39;;;;;;;20.48;12.65;;;;;;;4.09;100.00;101355.91;4982421;28;20058;-71
2022/11/27 08:54:06;;;;;;;20.10;12.35;;;;;;;4.17;100.00;101372.50;4998640;28;20488;-73
2022/11/27 08:56:33;;;;;;;22.38;12.20;;;;;;;4.16;100.00;101365.50;5002690;28;20045;-72
2022/11/27 08:58:59;;;;;;;18.42;12.18;;;;;;;4.38;100.00;101394.22;4990642;28;20128;-71
2022/11/27 09:01:29;;;;;;;25.45;14.50;;;;;;;4.36;100.00;101396.88;4987071;28;20068;-70
2022/11/27 09:03:56;;;;;;;21.27;13.40;;;;;;;4.44;100.00;101392.44;4997664;28;20042;-71
2022/11/27 09:06:28;;;;;;;19.15;11.80;;;;;;;4.51;100.00;101378.41;4999113;28;20077;-71
2022/11/27 09:08:57;;;;;;;18.50;12.05;;;;;;;4.49;100.00;101358.31;4998976;28;20479;-70
2022/11/27 09:11:24;;;;;;;19.05;11.45;;;;;;;4.59;100.00;101371.34;4980971;28;20046;-72
2022/11/27 09:13:50;;;;;;;19.05;11.48;;;;;;;4.65;100.00;101377.44;4998585;28;20048;-72
2022/11/27 09:16:19;;;;;;;20.23;12.68;;;;;;;4.56;100.00;101381.00;4999832;28;20494;-71
2022/11/27 09:18:48;;;;;;;21.50;12.57;;;;;;;4.59;100.00;101375.72;4994685;28;20051;-71
2022/11/27 09:21:17;;;;;;;21.70;13.07;;;;;;;4.66;100.00;101376.56;4980266;28;20156;-71
2022/11/27 09:23:44;;;;;;;22.23;13.50;;;;;;;4.67;100.00;101378.31;4992769;28;20061;-72
2022/11/27 09:26:13;;;;;;;19.00;13.02;;;;;;;4.58;100.00;101358.22;5006764;28;20130;-71
2022/11/27 09:28:40;;;;;;;22.83;13.38;;;;;;;4.73;100.00;101365.13;4994467;28;20057;-70
2022/11/27 09:31:10;;;;;;;20.00;12.93;;;;;;;4.83;100.00;101358.94;4985504;28;20043;-71
2022/11/27 09:33:39;;;;;;;19.80;12.23;;;;;;;4.79;100.00;101370.34;4992086;28;20054;-71
2022/11/27 09:36:08;;;;;;;18.70;12.07;;;;;;;4.82;100.00;101362.44;5002851;28;20054;-72
2022/11/27 09:38:35;;;;;;;20.60;12.65;;;;;;;4.88;100.00;101362.38;4998780;28;20486;-71
2022/11/27 09:41:24;;;;;;;19.20;13.27;;;;;;;4.89;100.00;101362.38;4988364;28;20054;-72
2022/11/27 09:43:56;;;;;;;19.42;12.40;;;;;;;5.04;100.00;101361.34;5001420;28;20045;-71
2022/11/27 09:46:35;;;;;;;18.75;13.20;;;;;;;5.10;100.00;101353.44;4998636;28;20043;-72
2022/11/27 09:49:11;;;;;;;19.77;12.90;;;;;;;5.16;100.00;101348.16;4998865;28;20054;-71
2022/11/27 09:51:56;;;;;;;20.98;13.35;;;;;;;5.12;100.00;101346.41;4984055;28;20136;-72
2022/11/27 09:54:24;;;;;;;22.65;12.88;;;;;;;5.02;100.00;101344.78;4991610;28;20081;-72
2022/11/27 09:56:54;;;;;;;20.08;13.10;;;;;;;4.97;100.00;101330.81;4994117;28;20133;-71
2022/11/27 09:59:28;;;;;;;20.38;12.60;;;;;;;4.97;100.00;101320.31;4994227;28;20057;-70
2022/11/27 10:01:55;;;;;;;23.70;13.73;;;;;;;5.01;100.00;101322.03;4985481;28;20419;-72
2022/11/27 10:04:24;;;;;;;21.42;13.65;;;;;;;5.01;100.00;101310.66;4996515;28;20050;-73
2022/11/27 10:06:53;;;;;;;21.92;13.80;;;;;;;5.10;100.00;101308.81;5004588;28;20069;-71
2022/11/27 10:09:51;;;;;;;22.10;13.55;;;;;;;5.20;100.00;101296.44;4997868;28;20510;-71
2022/11/27 10:12:40;;;;;;;20.00;12.50;;;;;;;5.43;100.00;101302.31;4973747;28;20396;-71
2022/11/27 10:15:09;;;;;;;19.13;11.95;;;;;;;5.60;100.00;101289.00;5003400;28;20116;-71
2022/11/27 10:17:51;;;;;;;18.13;12.70;;;;;;;5.71;100.00;101294.97;5006514;28;20096;-71
2022/11/27 10:20:45;;;;;;;22.58;13.05;;;;;;;5.93;100.00;101296.47;4989485;28;20407;-70
2022/11/27 10:23:19;;;;;;;18.73;12.43;;;;;;;6.22;100.00;101287.31;4988298;28;20085;-72
2022/11/27 10:25:49;;;;;;;21.52;11.93;;;;;;;6.43;100.00;101268.56;4990061;28;20053;-72
2022/11/27 10:28:45;;;;;;;18.13;12.07;;;;;;;6.64;100.00;101280.47;4988307;28;20082;-72
2022/11/27 10:31:30;;;;;;;18.60;12.35;;;;;;;6.70;100.00;101264.59;4986603;28;20074;-73
2022/11/27 10:34:22;;;;;;;19.05;12.07;;;;;;;6.57;100.00;101260.44;4993020;28;20037;-71
2022/11/27 10:36:50;;;;;;;19.25;11.48;;;;;;;6.62;100.00;101266.47;4992739;28;20414;-72
2022/11/27 10:39:41;;;;;;;18.95;11.80;;;;;;;6.56;100.00;101263.97;5002662;28;20073;-71
2022/11/27 10:42:33;;;;;;;16.10;10.73;;;;;;;6.66;100.00;101250.63;4983713;28;20057;-73
2022/11/27 10:45:04;;;;;;;17.65;11.13;;;;;;;6.83;100.00;101244.19;5003471;28;20081;-71
2022/11/27 10:47:31;;;;;;;17.75;11.00;;;;;;;6.86;100.00;101225.72;4999091;28;20057;-72
2022/11/27 10:49:59;;;;;;;16.92;10.93;;;;;;;7.06;100.00;101246.41;4995501;28;20050;-73
2022/11/27 10:52:26;;;;;;;15.18;10.00;;;;;;;7.06;100.00;101236.75;4985277;28;20056;-71
2022/11/27 10:55:03;;;;;;;17.70;10.35;;;;;;;6.96;100.00;101229.88;4998222;28;20050;-71
2022/11/27 10:57:33;;;;;;;16.08;10.65;;;;;;;6.85;100.00;101203.78;4988527;28;20046;-71
2022/11/27 11:00:23;;;;;;;15.80;10.33;;;;;;;7.05;100.00;101224.47;4998010;28;20053;-71
2022/11/27 11:03:00;;;;;;;;;;;;;;;7.12;100.00;101218.16;4979416;28;20463;-71
2022/11/27 11:05:27;;;;;;;13.30;9.48;;;;;;;7.20;100.00;101204.84;5003112;28;19927;-72
2022/11/27 11:08:18;;;;;;;15.02;10.40;;;;;;;7.25;100.00;101217.00;4995288;28;20046;-72
2022/11/27 11:10:53;;;;;;;14.88;9.38;;;;;;;7.12;100.00;101196.22;4985162;28;20051;-71
2022/11/27 11:13:30;;;;;;;14.50;9.60;;;;;;;7.23;100.00;101197.78;4979973;28;20052;-73
2022/11/27 11:16:04;;;;;;;13.70;9.57;;;;;;;7.28;100.00;101197.66;4996833;28;20050;-71
2022/11/27 11:18:34;;;;;;;13.27;9.10;;;;;;;7.28;100.00;101193.25;4991199;28;20061;-73
2022/11/27 11:21:06;;;;;;;12.00;9.07;;;;;;;7.25;100.00;101177.50;4992972;28;20687;-72
2022/11/27 11:23:39;;;;;;;14.65;9.13;;;;;;;7.30;100.00;101172.16;4988357;28;20061;-71
2022/11/27 11:26:28;;;;;;;15.27;9.43;;;;;;;7.33;100.00;101158.91;4998937;28;20074;-72
2022/11/27 11:28:58;;;;;;;17.27;9.10;;;;;;;7.31;100.00;101153.69;4991864;28;20078;-71